Broadview, Indiana
Current Conditions -  °F | °C
As of 4:53 AM on Saturday 29 Nov 2014 (Local Time) from KBMG Reporting Station
Clear Clear  
Wind Chill: 30°   Ceiling: Unl
Heat Index: 38°   Visibility: 10mi
Dew Point: 27°   Wind: 12mph
Humidity: 65%   Direction: 200°SSW
Pressure: 29.94"   Gusts: NA
Location:  38.8737°N, 86.4563°W
Report Text: KBMG 290953Z 20010KT 10SM CLR 03/M03 A2994 RMK AO2 SLP144 T00331028
Loading
Personal Weather Stations






























Interactive Weather Map New forecast layout! Learn more

10-Day Weather Forecast

Advertisements
Track Severe Weather on mobile